Portada
METAR-TAF:

METAR-TAF

Aeroports :

Aeroport de Ouarzazate

Ouarzazate, Marroc

latitud: 30-56N, longitud: 006-54W, altitud: 1139 m

Observació

L'informe es va fer fa 1 hora i 2 minuts, a les 18:00 UTC
Vent 8 kt del Sud
Temperatura 36°C
Humitat 6%
Pressió 1014 hPa
Visibilitat 10 km o més
sense núvols per sota de 1500 mi sense presència de cumulonimbus.

METAR: GMMZ 141800Z 18008KT CAVOK 36/M08 Q1014 NOSIG

Hora: 20:02 (19:02 UTC)

Pronòstic

L'informe es va fer fa 2 hores i 2 minuts, a les 17:00 UTC
Pronòstic vàlid del 14 a les 18 UTC al 15 a les 24 UTC
Vent 15 kt del Sud-Oest
Visibilitat 10 km o més
sense núvols per sota de 1500 mi sense presència de cumulonimbus.
Temporalment
l' 14 a les 23 UTC al 15 a les 01 UTC
Vent 2 kt amb direcció variable
Temporalment
l' 15 a les 15 UTC al 15 a les 20 UTC
Vent 18 kt del Oest

TAF: GMMZ 141700Z 1418/1524 22015KT CAVOK TEMPO 1423/1501 VRB02KT TEMPO 1515/1520 28018KT

Observacions i pronòstics meteorològics de més de 4000 aeroports (METAR i TAF).

Les estacions disponibles són els punts grocs i vermells al mapa.

Posi el ratolí al punt desitjat per veure el nom de l'estació.

Feu clic per veure les observacions i els pronòstics meteorològics.

Per canviar el mapa: feu clic els botons verds amb una creu de color negre per apropar; al botó verd amb un guió per allunyar la imatge; o en les fletxes verdes per a mapes adjacents.


METAR-TAF: